createdAt,value
2019-02-16T00:00:03.284Z,0
2019-02-16T00:01:13.083Z,0
2019-02-16T00:02:23.404Z,0
2019-02-16T00:03:33.252Z,0
2019-02-16T00:04:43.054Z,0
2019-02-16T00:05:53.129Z,0
2019-02-16T00:07:05.461Z,0
2019-02-16T00:08:15.534Z,0
2019-02-16T00:09:25.601Z,0
2019-02-16T00:10:35.652Z,0
2019-02-16T00:11:45.494Z,0
2019-02-16T00:12:55.541Z,0
2019-02-16T00:14:07.265Z,0
2019-02-16T00:15:17.377Z,0
2019-02-16T00:16:27.437Z,0
2019-02-16T00:17:37.730Z,0
2019-02-16T00:18:48.083Z,0
2019-02-16T00:19:58.152Z,0
2019-02-16T00:21:13.909Z,0
2019-02-16T00:22:24.030Z,0
2019-02-16T00:23:33.857Z,0
2019-02-16T00:24:43.903Z,0
2019-02-16T00:25:53.891Z,0
2019-02-16T00:27:03.683Z,0
2019-02-16T00:28:13.758Z,0
2019-02-16T00:29:23.926Z,0
2019-02-16T00:30:33.992Z,0
2019-02-16T00:31:44.049Z,0
2019-02-16T00:32:55.739Z,0
2019-02-16T00:34:05.942Z,0
2019-02-16T00:35:16.021Z,0
2019-02-16T00:36:26.111Z,0
2019-02-16T00:37:36.218Z,0
2019-02-16T00:38:47.034Z,0
2019-02-16T00:39:57.098Z,0
2019-02-16T00:41:07.160Z,0
2019-02-16T00:42:17.306Z,0
2019-02-16T00:43:27.423Z,0
2019-02-16T00:44:40.641Z,0
2019-02-16T00:45:50.725Z,0
2019-02-16T00:47:00.779Z,0
2019-02-16T00:48:10.847Z,0
2019-02-16T00:49:20.986Z,0
2019-02-16T00:50:31.083Z,0
2019-02-16T00:51:40.904Z,0
2019-02-16T00:52:50.966Z,0
2019-02-16T00:54:01.040Z,0
2019-02-16T00:55:11.339Z,0
2019-02-16T00:56:21.437Z,0
2019-02-16T00:57:31.507Z,0
2019-02-16T00:58:41.778Z,0
2019-02-16T00:59:51.876Z,0
2019-02-16T01:01:01.963Z,0
2019-02-16T01:02:12.023Z,0
2019-02-16T01:03:22.138Z,0
2019-02-16T01:04:32.195Z,0
2019-02-16T01:05:42.249Z,0
2019-02-16T01:06:52.303Z,0
2019-02-16T01:08:03.475Z,0
2019-02-16T01:09:13.535Z,0
2019-02-16T01:10:23.449Z,0
2019-02-16T01:11:33.512Z,0
2019-02-16T01:12:43.322Z,0
2019-02-16T01:13:53.394Z,0
2019-02-16T01:15:04.826Z,0
2019-02-16T01:16:15.801Z,0
2019-02-16T01:17:26.118Z,0
2019-02-16T01:18:36.164Z,0
2019-02-16T01:19:46.274Z,0
2019-02-16T01:20:56.320Z,0
2019-02-16T01:22:06.406Z,0
2019-02-16T01:23:16.454Z,0
2019-02-16T01:24:26.538Z,0
2019-02-16T01:25:36.639Z,0
2019-02-16T01:26:46.951Z,0
2019-02-16T01:27:57.077Z,0
2019-02-16T01:29:06.859Z,0
2019-02-16T01:30:16.945Z,0
2019-02-16T01:31:27.016Z,0
2019-02-16T01:32:37.136Z,0
2019-02-16T01:33:48.121Z,0
2019-02-16T01:34:58.238Z,0
2019-02-16T01:36:08.309Z,0
2019-02-16T01:37:18.371Z,0
2019-02-16T01:38:28.423Z,0
2019-02-16T01:39:38.565Z,0
2019-02-16T01:40:48.636Z,0
2019-02-16T01:41:58.700Z,0
2019-02-16T01:43:08.774Z,0
2019-02-16T01:44:19.036Z,0
2019-02-16T01:45:29.091Z,0
2019-02-16T01:46:39.147Z,0
2019-02-16T01:47:48.941Z,0
2019-02-16T01:48:59.101Z,0
2019-02-16T01:50:09.407Z,0
2019-02-16T01:51:19.456Z,0
2019-02-16T01:52:29.545Z,0
2019-02-16T01:53:39.595Z,0
2019-02-16T01:54:49.406Z,0
2019-02-16T01:55:59.830Z,0
2019-02-16T01:57:12.308Z,0
2019-02-16T01:58:22.420Z,0
2019-02-16T01:59:32.475Z,0
2019-02-16T02:00:42.326Z,0
2019-02-16T02:01:52.388Z,0
2019-02-16T02:03:02.461Z,0
2019-02-16T02:04:12.511Z,0
2019-02-16T02:05:22.296Z,0
2019-02-16T02:06:32.318Z,0
2019-02-16T02:07:42.383Z,0
2019-02-16T02:08:52.429Z,0
2019-02-16T02:10:02.686Z,0
2019-02-16T02:11:12.492Z,0
2019-02-16T02:12:22.600Z,0
2019-02-16T02:13:32.396Z,0
2019-02-16T02:14:42.210Z,0
2019-02-16T02:15:52.253Z,0
2019-02-16T02:17:02.564Z,0
2019-02-16T02:18:12.672Z,0
2019-02-16T02:19:22.797Z,0
2019-02-16T02:20:32.586Z,0
2019-02-16T02:21:50.557Z,0
2019-02-16T02:23:00.374Z,0
2019-02-16T02:24:10.435Z,0
2019-02-16T02:25:20.497Z,0
2019-02-16T02:26:30.293Z,0
2019-02-16T02:27:40.103Z,0
2019-02-16T02:28:50.446Z,0
2019-02-16T02:30:02.221Z,0
2019-02-16T02:31:12.329Z,0
2019-02-16T02:32:22.668Z,0
2019-02-16T02:33:32.744Z,0
2019-02-16T02:34:42.809Z,0
2019-02-16T02:35:52.905Z,0
2019-02-16T02:37:04.810Z,0
2019-02-16T02:38:14.808Z,0
2019-02-16T02:39:24.866Z,0
2019-02-16T02:40:34.674Z,0
2019-02-16T02:41:44.463Z,0
2019-02-16T02:42:54.527Z,0
2019-02-16T02:44:04.331Z,0
2019-02-16T02:45:14.417Z,0
2019-02-16T02:46:24.521Z,0
2019-02-16T02:47:34.634Z,0
2019-02-16T02:48:44.545Z,0
2019-02-16T02:49:54.339Z,0
2019-02-16T02:51:04.201Z,0
2019-02-16T02:52:14.479Z,0
2019-02-16T02:53:33.435Z,0
2019-02-16T02:54:43.478Z,0
2019-02-16T02:55:53.594Z,0
2019-02-16T02:57:03.415Z,0
2019-02-16T02:58:13.497Z,0
2019-02-16T02:59:23.548Z,0
2019-02-16T03:00:33.607Z,0
2019-02-16T03:01:43.671Z,0
2019-02-16T03:33:52.930Z,0
2019-02-16T03:35:05.216Z,0
2019-02-16T03:36:15.063Z,0
2019-02-16T03:37:25.089Z,0
2019-02-16T03:38:34.893Z,0
2019-02-16T03:39:45.269Z,0
2019-02-16T03:40:55.325Z,0
2019-02-16T03:42:05.109Z,0
2019-02-16T03:43:15.160Z,0
2019-02-16T03:44:25.486Z,0
2019-02-16T03:45:35.640Z,0
2019-02-16T03:46:45.691Z,0
2019-02-16T03:47:56.182Z,0
2019-02-16T03:49:07.939Z,0
2019-02-16T03:50:17.998Z,0
2019-02-16T03:51:27.858Z,0
2019-02-16T03:52:38.143Z,0
2019-02-16T03:53:48.457Z,0
2019-02-16T03:54:58.570Z,0
2019-02-16T03:56:09.515Z,0
2019-02-16T03:57:19.809Z,0
2019-02-16T03:58:30.070Z,0
2019-02-16T03:59:40.316Z,0
2019-02-16T04:00:50.357Z,0
2019-02-16T04:02:02.478Z,0
2019-02-16T04:03:12.634Z,0
2019-02-16T04:04:22.704Z,0
2019-02-16T04:05:32.759Z,0
2019-02-16T04:06:42.859Z,0
2019-02-16T04:07:52.951Z,0
2019-02-16T04:09:03.196Z,0
2019-02-16T04:10:13.285Z,0
2019-02-16T04:11:23.160Z,0
2019-02-16T04:12:33.225Z,0
2019-02-16T04:13:43.021Z,0
2019-02-16T04:14:52.616Z,0
2019-02-16T04:16:03.420Z,0
2019-02-16T04:17:13.574Z,0
2019-02-16T04:18:23.641Z,0
2019-02-16T04:19:33.462Z,0
2019-02-16T04:20:43.587Z,0
2019-02-16T04:21:53.682Z,0
2019-02-16T04:23:03.757Z,0
2019-02-16T04:24:13.825Z,0
2019-02-16T04:25:23.878Z,0
2019-02-16T04:26:33.958Z,0
2019-02-16T04:27:44.119Z,0
2019-02-16T04:28:53.907Z,0
2019-02-16T04:30:03.717Z,0
2019-02-16T04:31:13.765Z,0
2019-02-16T04:32:23.836Z,0
2019-02-16T04:33:33.900Z,0
2019-02-16T04:34:43.702Z,0
2019-02-16T04:35:53.793Z,0
2019-02-16T04:37:03.851Z,0
2019-02-16T04:38:13.957Z,0
2019-02-16T04:39:23.500Z,0
2019-02-16T04:40:33.560Z,0
2019-02-16T04:41:43.717Z,0
2019-02-16T04:42:53.790Z,0
2019-02-16T04:44:03.875Z,0
2019-02-16T04:45:13.891Z,0
2019-02-16T04:46:23.963Z,0
2019-02-16T04:47:33.756Z,0
2019-02-16T04:48:43.822Z,0
2019-02-16T04:49:53.938Z,0
2019-02-16T04:51:04.072Z,0
2019-02-16T04:52:13.862Z,0
2019-02-16T04:53:23.905Z,0
2019-02-16T04:54:33.719Z,0
2019-02-16T04:55:43.555Z,0
2019-02-16T04:56:53.604Z,0
2019-02-16T04:58:03.222Z,0
2019-02-16T04:59:13.305Z,0
2019-02-16T05:00:23.357Z,0
2019-02-16T05:01:33.744Z,0
2019-02-16T05:02:43.894Z,0
2019-02-16T05:03:53.947Z,0
2019-02-16T05:05:03.757Z,0
2019-02-16T05:06:13.566Z,0
2019-02-16T05:07:23.720Z,0
2019-02-16T05:08:33.787Z,0
2019-02-16T05:09:43.823Z,0
2019-02-16T05:10:54.289Z,0
2019-02-16T05:12:04.116Z,0
2019-02-16T05:13:14.254Z,0
2019-02-16T05:14:24.373Z,0
2019-02-16T05:15:34.153Z,0
2019-02-16T05:16:44.211Z,0
2019-02-16T05:17:54.408Z,0
2019-02-16T05:19:04.522Z,0
2019-02-16T05:20:14.583Z,0
2019-02-16T05:21:24.380Z,0
2019-02-16T05:22:43.760Z,0
2019-02-16T05:23:54.129Z,0
2019-02-16T05:25:04.471Z,0
2019-02-16T05:26:14.557Z,0
2019-02-16T05:27:24.368Z,0
2019-02-16T05:28:34.438Z,0
2019-02-16T05:29:44.305Z,0
2019-02-16T05:30:54.169Z,0
2019-02-16T05:32:04.237Z,0
2019-02-16T05:33:14.038Z,0
2019-02-16T05:34:23.864Z,0
2019-02-16T05:35:33.851Z,0
2019-02-16T05:36:43.949Z,0
2019-02-16T05:37:54.037Z,0
2019-02-16T05:39:04.101Z,0
2019-02-16T05:40:13.903Z,0
2019-02-16T05:41:23.975Z,0
2019-02-16T05:42:34.053Z,0
2019-02-16T05:43:43.852Z,0
2019-02-16T05:44:53.906Z,0
2019-02-16T05:46:04.485Z,0
2019-02-16T05:47:14.377Z,0
2019-02-16T05:48:24.674Z,0
2019-02-16T05:49:34.478Z,0
2019-02-16T05:50:44.273Z,0
2019-02-16T05:51:54.338Z,0
2019-02-16T05:53:04.010Z,0
2019-02-16T05:54:14.070Z,0
2019-02-16T05:55:24.133Z,0
2019-02-16T05:56:33.957Z,0
2019-02-16T05:57:44.274Z,5
2019-02-16T05:58:54.349Z,5
2019-02-16T06:00:04.499Z,5
2019-02-16T06:01:14.563Z,5
2019-02-16T06:02:24.601Z,5
2019-02-16T06:03:34.639Z,5
2019-02-16T06:04:44.875Z,5
2019-02-16T06:05:54.952Z,10
2019-02-16T06:07:07.461Z,10
2019-02-16T06:08:17.573Z,10
2019-02-16T06:09:27.489Z,10
2019-02-16T06:10:37.615Z,15
2019-02-16T06:11:47.716Z,15
2019-02-16T06:12:57.282Z,15
2019-02-16T06:14:07.355Z,15
2019-02-16T06:15:17.402Z,20
2019-02-16T06:16:27.447Z,20
2019-02-16T06:17:36.995Z,20
2019-02-16T06:18:47.048Z,20
2019-02-16T06:19:57.114Z,25
2019-02-16T06:21:09.949Z,25
2019-02-16T06:22:19.755Z,25
2019-02-16T06:23:29.829Z,25
2019-02-16T06:24:39.876Z,30
2019-02-16T06:25:50.189Z,30
2019-02-16T06:27:02.990Z,30
2019-02-16T06:28:13.065Z,30
2019-02-16T06:29:23.122Z,35
2019-02-16T06:30:33.177Z,35
2019-02-16T06:31:43.307Z,35
2019-02-16T06:32:53.132Z,35
2019-02-16T06:34:03.903Z,35
2019-02-16T06:35:14.075Z,40
2019-02-16T06:36:24.134Z,40
2019-02-16T06:37:34.154Z,40
2019-02-16T06:38:44.227Z,40
2019-02-16T06:39:54.302Z,40
2019-02-16T06:41:04.473Z,40
2019-02-16T06:42:14.557Z,45
2019-02-16T06:43:24.912Z,45
2019-02-16T06:44:34.976Z,45
2019-02-16T06:45:44.779Z,45
2019-02-16T06:46:54.895Z,45
2019-02-16T06:48:05.167Z,45
2019-02-16T06:49:15.617Z,45
2019-02-16T06:50:25.678Z,45
2019-02-16T06:51:35.731Z,45
2019-02-16T06:52:45.552Z,50
2019-02-16T06:53:55.388Z,50
2019-02-16T06:55:05.418Z,50
2019-02-16T06:56:15.477Z,55
2019-02-16T06:57:25.532Z,55
2019-02-16T06:58:35.857Z,55
2019-02-16T06:59:45.913Z,55
2019-02-16T07:00:55.975Z,55
2019-02-16T07:02:06.044Z,55
2019-02-16T07:03:16.155Z,55
2019-02-16T07:04:26.205Z,55
2019-02-16T07:05:36.286Z,60
2019-02-16T07:06:46.776Z,60
2019-02-16T07:07:56.919Z,60
2019-02-16T07:09:08.055Z,70
2019-02-16T07:10:18.134Z,65
2019-02-16T07:11:27.968Z,65
2019-02-16T07:12:38.226Z,65
2019-02-16T07:13:48.531Z,70
2019-02-16T07:14:58.702Z,70
2019-02-16T07:16:09.247Z,75
2019-02-16T07:17:19.422Z,75
2019-02-16T07:18:29.215Z,75
2019-02-16T07:19:39.032Z,80
2019-02-16T07:20:49.172Z,80
2019-02-16T07:21:58.981Z,80
2019-02-16T07:23:08.842Z,85
2019-02-16T07:24:18.934Z,85
2019-02-16T07:25:28.957Z,85
2019-02-16T07:26:39.012Z,90
2019-02-16T07:27:49.077Z,90
2019-02-16T07:28:59.409Z,95
2019-02-16T07:30:09.463Z,95
2019-02-16T07:31:20.831Z,95
2019-02-16T07:32:30.643Z,95
2019-02-16T07:33:40.948Z,100
2019-02-16T07:34:51.047Z,100
2019-02-16T07:36:01.164Z,105
2019-02-16T07:37:11.239Z,105
2019-02-16T07:38:21.495Z,110
2019-02-16T07:39:31.547Z,115
2019-02-16T07:40:41.397Z,115
2019-02-16T07:41:51.789Z,115
2019-02-16T07:43:03.266Z,120
2019-02-16T07:44:14.377Z,120
2019-02-16T07:45:25.699Z,125
2019-02-16T07:46:36.823Z,125
2019-02-16T07:47:48.105Z,125
2019-02-16T07:48:58.928Z,125
2019-02-16T07:50:12.033Z,130
2019-02-16T07:51:23.514Z,130
2019-02-16T07:52:34.380Z,130
2019-02-16T07:53:45.441Z,130
2019-02-16T07:54:56.058Z,130
2019-02-16T07:56:07.327Z,130
2019-02-16T07:57:25.484Z,130
2019-02-16T07:58:36.539Z,130
2019-02-16T07:59:46.939Z,130
2019-02-16T08:00:57.053Z,135
2019-02-16T08:02:08.313Z,135
2019-02-16T08:03:17.921Z,135
2019-02-16T08:04:27.981Z,130
2019-02-16T08:05:38.140Z,130
2019-02-16T08:06:48.483Z,135
2019-02-16T08:07:58.671Z,135
2019-02-16T08:09:10.872Z,135
2019-02-16T08:10:21.001Z,140
2019-02-16T08:11:32.106Z,135
2019-02-16T08:12:42.231Z,140
2019-02-16T08:13:52.139Z,140
2019-02-16T08:15:02.198Z,140
2019-02-16T08:16:12.019Z,140
2019-02-16T08:17:21.836Z,140
2019-02-16T08:18:31.624Z,140
2019-02-16T08:19:41.688Z,140
2019-02-16T08:20:51.731Z,140
2019-02-16T08:22:01.842Z,140
2019-02-16T08:23:11.915Z,140
2019-02-16T08:24:21.713Z,140
2019-02-16T08:25:31.793Z,135
2019-02-16T08:26:41.581Z,125
2019-02-16T08:27:51.688Z,130
2019-02-16T08:29:01.742Z,120
2019-02-16T08:30:11.537Z,120
2019-02-16T08:31:21.589Z,135
2019-02-16T08:32:31.412Z,135
2019-02-16T08:33:41.232Z,150
2019-02-16T08:34:51.062Z,145
2019-02-16T08:36:01.160Z,150
2019-02-16T08:37:10.991Z,150
2019-02-16T08:38:20.788Z,150
2019-02-16T08:39:30.870Z,155
2019-02-16T08:40:40.964Z,155
2019-02-16T08:41:51.040Z,155
2019-02-16T08:43:01.097Z,155
2019-02-16T08:44:12.460Z,160
2019-02-16T08:45:22.518Z,160
2019-02-16T08:46:32.387Z,160
2019-02-16T08:47:42.256Z,165
2019-02-16T08:48:52.312Z,165
2019-02-16T08:50:02.355Z,165
2019-02-16T08:51:12.415Z,150
2019-02-16T08:52:22.561Z,155
2019-02-16T08:53:32.620Z,135
2019-02-16T08:54:42.683Z,125
2019-02-16T08:55:54.025Z,125
2019-02-16T08:57:05.538Z,130
2019-02-16T08:58:16.280Z,125
2019-02-16T08:59:26.081Z,130
2019-02-16T09:00:36.146Z,140
2019-02-16T09:01:46.213Z,125
2019-02-16T09:02:56.070Z,135
2019-02-16T09:04:06.231Z,160
2019-02-16T09:05:16.387Z,175
2019-02-16T09:06:26.970Z,180
2019-02-16T09:07:37.269Z,175
2019-02-16T09:08:47.337Z,180
2019-02-16T09:09:57.418Z,180
2019-02-16T09:11:07.569Z,175
2019-02-16T09:12:17.402Z,175
2019-02-16T09:13:27.485Z,160
2019-02-16T09:14:37.861Z,145
2019-02-16T09:15:47.938Z,160
2019-02-16T09:16:58.022Z,175
2019-02-16T09:18:08.109Z,170
2019-02-16T09:19:18.168Z,170
2019-02-16T09:20:28.203Z,190
2019-02-16T09:21:38.348Z,185
2019-02-16T09:22:48.175Z,175
2019-02-16T09:24:06.445Z,155
2019-02-16T09:25:16.277Z,145
2019-02-16T09:26:26.351Z,145
2019-02-16T09:27:36.497Z,145
2019-02-16T09:28:46.351Z,145
2019-02-16T09:29:56.574Z,145
2019-02-16T09:31:06.670Z,150
2019-02-16T09:32:18.353Z,150
2019-02-16T09:33:27.917Z,150
2019-02-16T09:34:37.982Z,170
2019-02-16T09:35:48.047Z,160
2019-02-16T09:36:58.108Z,170
2019-02-16T09:38:09.039Z,170
2019-02-16T09:39:18.975Z,165
2019-02-16T09:40:29.041Z,160
2019-02-16T09:41:39.129Z,160
2019-02-16T09:42:49.190Z,165
2019-02-16T09:43:59.015Z,170
2019-02-16T09:45:09.110Z,160
2019-02-16T09:46:19.208Z,150
2019-02-16T09:47:29.755Z,155
2019-02-16T09:48:40.209Z,155
2019-02-16T09:49:50.379Z,150
2019-02-16T09:51:00.486Z,155
2019-02-16T09:52:11.327Z,155
2019-02-16T09:53:21.405Z,150
2019-02-16T09:54:31.707Z,150
2019-02-16T09:55:42.059Z,150
2019-02-16T09:56:52.149Z,155
2019-02-16T09:58:02.235Z,180
2019-02-16T09:59:12.853Z,175
2019-02-16T10:00:23.756Z,160
2019-02-16T10:01:34.060Z,145
2019-02-16T10:02:44.145Z,145
2019-02-16T10:03:54.224Z,135
2019-02-16T10:05:04.335Z,135
2019-02-16T10:06:14.261Z,140
2019-02-16T10:07:24.412Z,145
2019-02-16T10:08:34.524Z,155
2019-02-16T10:09:44.589Z,165
2019-02-16T10:10:54.876Z,165
2019-02-16T10:12:04.953Z,155
2019-02-16T10:13:15.031Z,155
2019-02-16T10:14:25.532Z,150
2019-02-16T10:15:35.621Z,150
2019-02-16T10:16:45.695Z,160
2019-02-16T10:17:56.117Z,170
2019-02-16T10:19:06.247Z,190
2019-02-16T10:20:16.096Z,170
2019-02-16T10:21:26.202Z,165
2019-02-16T10:22:36.277Z,180
2019-02-16T10:23:46.357Z,165
2019-02-16T10:24:56.404Z,165
2019-02-16T10:26:06.486Z,165
2019-02-16T10:27:16.588Z,175
2019-02-16T10:28:26.660Z,190
2019-02-16T10:29:37.002Z,190
2019-02-16T10:30:46.824Z,190
2019-02-16T10:31:56.916Z,190
2019-02-16T10:33:08.038Z,190
2019-02-16T10:34:18.126Z,190
2019-02-16T10:35:28.220Z,190
2019-02-16T10:36:39.067Z,185
2019-02-16T10:37:48.962Z,190
2019-02-16T10:38:59.163Z,195
2019-02-16T10:40:09.277Z,195
2019-02-16T10:41:19.398Z,195
2019-02-16T10:42:29.483Z,190
2019-02-16T10:43:39.966Z,195
2019-02-16T10:44:50.278Z,190
2019-02-16T10:46:01.659Z,185
2019-02-16T10:47:12.096Z,190
2019-02-16T10:48:22.177Z,175
2019-02-16T10:49:31.980Z,165
2019-02-16T10:50:42.045Z,180
2019-02-16T10:51:52.079Z,185
2019-02-16T10:53:02.148Z,195
2019-02-16T10:54:12.227Z,195
2019-02-16T10:55:22.316Z,195
2019-02-16T10:56:32.262Z,200
2019-02-16T10:57:42.326Z,200
2019-02-16T10:58:52.155Z,200
2019-02-16T11:00:02.249Z,200
2019-02-16T11:01:11.838Z,200
2019-02-16T11:02:22.046Z,205
2019-02-16T11:03:32.861Z,205
2019-02-16T11:04:47.930Z,205
2019-02-16T11:05:57.999Z,205
2019-02-16T11:07:10.070Z,210
2019-02-16T11:08:20.232Z,210
2019-02-16T11:09:30.333Z,210
2019-02-16T11:10:40.400Z,210
2019-02-16T11:11:52.714Z,210
2019-02-16T11:13:02.548Z,210
2019-02-16T11:14:12.376Z,210
2019-02-16T11:15:22.181Z,210
2019-02-16T11:16:32.028Z,210
2019-02-16T11:17:42.304Z,210
2019-02-16T11:18:52.681Z,210
2019-02-16T11:20:03.210Z,210
2019-02-16T11:21:13.493Z,210
2019-02-16T11:22:23.843Z,210
2019-02-16T11:23:33.951Z,215
2019-02-16T11:24:46.226Z,210
2019-02-16T11:25:56.391Z,215
2019-02-16T11:27:06.482Z,215
2019-02-16T11:28:16.570Z,215
2019-02-16T11:29:26.647Z,215
2019-02-16T11:30:36.715Z,215
2019-02-16T11:31:47.022Z,215
2019-02-16T11:32:57.117Z,215
2019-02-16T11:34:07.703Z,215
2019-02-16T11:35:19.961Z,215
2019-02-16T11:36:29.799Z,215
2019-02-16T11:37:39.926Z,215
2019-02-16T11:38:50.021Z,215
2019-02-16T11:39:59.866Z,220
2019-02-16T11:41:18.549Z,220
2019-02-16T11:42:28.957Z,220
2019-02-16T11:43:40.987Z,220
2019-02-16T11:44:51.492Z,220
2019-02-16T11:46:01.600Z,220
2019-02-16T11:47:11.670Z,220
2019-02-16T11:48:21.765Z,220
2019-02-16T11:49:31.599Z,220
2019-02-16T11:50:41.677Z,220
2019-02-16T11:51:51.858Z,220
2019-02-16T11:53:01.929Z,225
2019-02-16T11:54:12.031Z,215
2019-02-16T11:55:22.426Z,230
2019-02-16T11:56:32.526Z,230
2019-02-16T11:57:43.102Z,225
2019-02-16T11:58:53.206Z,225
2019-02-16T12:00:03.526Z,225
2019-02-16T12:01:13.628Z,225
2019-02-16T12:02:23.717Z,225
2019-02-16T12:03:34.261Z,220
2019-02-16T12:04:44.309Z,220
2019-02-16T12:05:54.693Z,220
2019-02-16T12:07:05.559Z,220
2019-02-16T12:08:15.635Z,220
2019-02-16T12:09:26.178Z,220
2019-02-16T12:10:36.440Z,215
2019-02-16T12:11:46.545Z,205
2019-02-16T12:12:56.652Z,220
2019-02-16T12:14:06.722Z,215
2019-02-16T12:15:16.294Z,205
2019-02-16T12:16:26.380Z,205
2019-02-16T12:17:36.500Z,215
2019-02-16T12:18:46.596Z,205
2019-02-16T12:19:56.680Z,210
2019-02-16T12:21:06.999Z,210
2019-02-16T12:22:17.337Z,205
2019-02-16T12:23:27.475Z,205
2019-02-16T12:24:37.335Z,190
2019-02-16T12:25:47.639Z,210
2019-02-16T12:26:57.677Z,210
2019-02-16T12:28:09.433Z,210
2019-02-16T12:29:19.494Z,210
2019-02-16T12:30:29.648Z,210
2019-02-16T12:31:39.754Z,210
2019-02-16T12:32:49.840Z,210
2019-02-16T12:33:59.914Z,210
2019-02-16T12:35:09.949Z,205
2019-02-16T12:36:21.870Z,205
2019-02-16T12:37:32.119Z,205
2019-02-16T12:38:41.670Z,195
2019-02-16T12:39:51.798Z,190
2019-02-16T12:41:01.890Z,195
2019-02-16T12:42:11.992Z,205
2019-02-16T12:43:22.431Z,185
2019-02-16T12:44:32.520Z,175
2019-02-16T12:45:50.774Z,190
2019-02-16T12:47:03.554Z,185
2019-02-16T12:48:14.344Z,190
2019-02-16T12:49:24.422Z,185
2019-02-16T12:50:34.533Z,195
2019-02-16T12:51:45.063Z,200
2019-02-16T12:52:55.174Z,200
2019-02-16T12:54:05.312Z,195
2019-02-16T12:55:23.974Z,205
2019-02-16T12:56:34.032Z,200
2019-02-16T12:57:44.374Z,190
2019-02-16T12:58:54.206Z,185
2019-02-16T13:00:04.130Z,185
2019-02-16T13:01:14.214Z,190
2019-02-16T13:02:24.758Z,190
2019-02-16T13:03:35.158Z,195
2019-02-16T13:04:44.800Z,190
2019-02-16T13:05:54.897Z,190
2019-02-16T13:07:07.954Z,190
2019-02-16T13:08:18.597Z,185
2019-02-16T13:09:28.719Z,185
2019-02-16T13:10:38.822Z,185
2019-02-16T13:11:49.074Z,180
2019-02-16T13:12:59.244Z,175
2019-02-16T13:14:09.101Z,180
2019-02-16T13:15:19.181Z,180
2019-02-16T13:16:29.289Z,180
2019-02-16T13:17:38.945Z,180
2019-02-16T13:18:49.010Z,175
2019-02-16T13:19:58.891Z,180
2019-02-16T13:21:08.960Z,180
2019-02-16T13:22:19.021Z,180
2019-02-16T13:23:29.344Z,180
2019-02-16T13:24:39.404Z,185
2019-02-16T13:25:49.494Z,180
2019-02-16T13:26:59.066Z,180
2019-02-16T13:28:10.872Z,180
2019-02-16T13:29:20.720Z,175
2019-02-16T13:30:30.997Z,175
2019-02-16T13:31:41.215Z,175
2019-02-16T13:32:51.036Z,175
2019-02-16T13:34:02.328Z,175
2019-02-16T13:35:12.415Z,175
2019-02-16T13:36:22.746Z,175
2019-02-16T13:37:32.816Z,175
2019-02-16T13:38:42.912Z,175
2019-02-16T13:39:53.463Z,175
2019-02-16T13:41:05.595Z,170
2019-02-16T13:42:15.875Z,170
2019-02-16T13:43:26.965Z,170
2019-02-16T13:44:37.113Z,170
2019-02-16T13:45:47.198Z,170
2019-02-16T13:46:57.045Z,170
2019-02-16T13:48:06.880Z,170
2019-02-16T13:49:16.982Z,170
2019-02-16T13:50:27.782Z,170
2019-02-16T13:51:38.104Z,165
2019-02-16T13:52:48.196Z,165
2019-02-16T13:53:58.259Z,165
2019-02-16T13:55:11.222Z,165
2019-02-16T13:56:21.898Z,165
2019-02-16T13:57:31.792Z,165
2019-02-16T13:58:41.615Z,165
2019-02-16T13:59:51.601Z,165
2019-02-16T14:01:01.696Z,165
2019-02-16T14:02:13.156Z,165
2019-02-16T14:03:23.503Z,160
2019-02-16T14:04:33.825Z,160
2019-02-16T14:05:44.177Z,160
2019-02-16T14:06:54.579Z,160
2019-02-16T14:08:05.972Z,160
2019-02-16T14:09:16.389Z,160
2019-02-16T14:10:26.514Z,155
2019-02-16T14:11:37.220Z,160
2019-02-16T14:12:47.290Z,160
2019-02-16T14:13:57.394Z,155
2019-02-16T14:15:08.473Z,155
2019-02-16T14:16:18.584Z,150
2019-02-16T14:17:28.490Z,150
2019-02-16T14:18:39.033Z,150
2019-02-16T14:19:49.115Z,145
2019-02-16T14:20:59.203Z,145
2019-02-16T14:22:09.949Z,145
2019-02-16T14:23:20.013Z,145
2019-02-16T14:24:30.564Z,140
2019-02-16T14:25:50.682Z,140
2019-02-16T14:27:03.045Z,140
2019-02-16T14:28:13.242Z,135
2019-02-16T14:29:23.651Z,135
2019-02-16T14:30:33.738Z,135
2019-02-16T14:31:43.846Z,135
2019-02-16T14:32:53.923Z,130
2019-02-16T14:34:04.519Z,130
2019-02-16T14:35:14.638Z,130
2019-02-16T14:36:24.737Z,130
2019-02-16T14:37:35.500Z,125
2019-02-16T14:38:45.615Z,125
2019-02-16T14:39:55.838Z,125
2019-02-16T14:41:06.012Z,125
2019-02-16T14:42:16.138Z,125
2019-02-16T14:43:26.433Z,125
2019-02-16T14:44:36.524Z,125
2019-02-16T14:45:46.666Z,125
2019-02-16T14:46:56.789Z,120
2019-02-16T14:48:07.114Z,120
2019-02-16T14:49:17.256Z,120
2019-02-16T14:50:27.371Z,120
2019-02-16T14:51:37.268Z,115
2019-02-16T14:52:47.348Z,110
2019-02-16T14:53:57.545Z,105
2019-02-16T14:55:07.859Z,95
2019-02-16T14:56:17.991Z,95
2019-02-16T14:57:27.845Z,90
2019-02-16T14:58:38.740Z,90
2019-02-16T14:59:48.919Z,90
2019-02-16T15:00:59.569Z,85
2019-02-16T15:02:10.077Z,85
2019-02-16T15:03:20.653Z,85
2019-02-16T15:04:30.221Z,85
2019-02-16T15:05:39.749Z,85
2019-02-16T15:06:49.829Z,80
2019-02-16T15:07:59.922Z,80
2019-02-16T15:09:10.540Z,80
2019-02-16T15:10:20.386Z,80
2019-02-16T15:11:30.567Z,80
2019-02-16T15:12:40.676Z,75
2019-02-16T15:13:52.337Z,75
2019-02-16T15:15:02.784Z,75
2019-02-16T15:16:12.633Z,75
2019-02-16T15:17:22.715Z,75
2019-02-16T15:18:32.800Z,70
2019-02-16T15:19:42.672Z,70
2019-02-16T15:20:52.762Z,65
2019-02-16T15:22:02.836Z,65
2019-02-16T15:23:13.302Z,65
2019-02-16T15:24:23.222Z,60
2019-02-16T15:25:33.356Z,55
2019-02-16T15:26:43.453Z,55
2019-02-16T15:27:53.613Z,50
2019-02-16T15:29:03.731Z,45
2019-02-16T15:30:14.410Z,45
2019-02-16T15:31:24.689Z,45
2019-02-16T15:32:34.520Z,45
2019-02-16T15:33:44.408Z,45
2019-02-16T15:34:54.525Z,40
2019-02-16T15:36:04.622Z,40
2019-02-16T15:37:14.720Z,40
2019-02-16T15:38:25.151Z,35
2019-02-16T15:39:35.246Z,35
2019-02-16T15:40:45.660Z,35
2019-02-16T15:41:55.763Z,30
2019-02-16T15:43:05.838Z,30
2019-02-16T15:44:17.914Z,30
2019-02-16T15:45:28.011Z,30
2019-02-16T15:46:38.084Z,25
2019-02-16T15:47:48.208Z,25
2019-02-16T15:48:58.348Z,25
2019-02-16T15:50:08.451Z,20
2019-02-16T15:51:18.835Z,20
2019-02-16T15:52:28.968Z,20
2019-02-16T15:53:39.095Z,20
2019-02-16T15:54:49.163Z,15
2019-02-16T15:55:59.405Z,15
2019-02-16T15:57:10.378Z,15
2019-02-16T15:58:20.659Z,15
2019-02-16T15:59:40.959Z,15
2019-02-16T16:00:51.587Z,10
2019-02-16T16:02:02.648Z,10
2019-02-16T16:03:12.761Z,10
2019-02-16T16:04:24.071Z,10
2019-02-16T16:05:34.351Z,10
2019-02-16T16:06:44.439Z,5
2019-02-16T16:07:54.510Z,5
2019-02-16T16:09:06.515Z,5
2019-02-16T16:10:16.440Z,5
2019-02-16T16:11:26.322Z,5
2019-02-16T16:12:36.396Z,5
2019-02-16T16:13:46.240Z,5
2019-02-16T16:14:56.297Z,5
2019-02-16T16:16:06.426Z,5
2019-02-16T16:17:16.667Z,0
2019-02-16T16:18:26.744Z,0
2019-02-16T16:19:37.068Z,0
2019-02-16T16:20:46.899Z,0
2019-02-16T16:21:57.007Z,0
2019-02-16T16:23:07.198Z,0
2019-02-16T16:24:17.277Z,0
2019-02-16T16:25:26.893Z,0
2019-02-16T16:26:37.858Z,0
2019-02-16T16:27:47.930Z,0
2019-02-16T16:29:06.367Z,0
2019-02-16T16:30:16.462Z,0
2019-02-16T16:31:26.791Z,0
2019-02-16T16:32:36.674Z,0
2019-02-16T16:33:46.738Z,0
2019-02-16T16:34:57.204Z,0
2019-02-16T16:36:07.286Z,0
2019-02-16T16:37:17.373Z,0
2019-02-16T16:38:26.693Z,0
2019-02-16T16:39:36.787Z,0
2019-02-16T16:40:46.582Z,0
2019-02-16T16:41:56.917Z,0
2019-02-16T16:43:09.231Z,0
2019-02-16T16:44:19.333Z,0
2019-02-16T16:45:29.473Z,0
2019-02-16T16:46:39.585Z,0
2019-02-16T16:47:49.723Z,0
2019-02-16T16:49:00.042Z,0
2019-02-16T16:50:18.476Z,0
2019-02-16T16:51:28.616Z,0
2019-02-16T16:52:38.719Z,0
2019-02-16T16:53:48.810Z,0
2019-02-16T16:54:58.871Z,0
2019-02-16T16:56:08.781Z,0
2019-02-16T16:57:18.860Z,0
2019-02-16T16:58:28.973Z,0
2019-02-16T16:59:40.250Z,0
2019-02-16T17:00:50.394Z,0
2019-02-16T17:02:00.491Z,0
2019-02-16T17:03:10.966Z,0
2019-02-16T17:04:21.077Z,0
2019-02-16T17:05:32.221Z,0
2019-02-16T17:06:42.600Z,0
2019-02-16T17:07:52.733Z,0
2019-02-16T17:09:02.917Z,0
2019-02-16T17:10:13.088Z,0
2019-02-16T17:11:23.218Z,0
2019-02-16T17:12:41.909Z,0